sensor_id;sensor_type;location;lat;lon;timestamp;P1;durP1;ratioP1;P2;durP2;ratioP2
12852;SDS011;6495;51.808;7.478;2022-11-14T00:01:36;14.50;;;7.90;;
12852;SDS011;6495;51.808;7.478;2022-11-14T00:04:23;15.13;;;7.50;;
12852;SDS011;6495;51.808;7.478;2022-11-14T00:07:13;14.33;;;7.40;;
12852;SDS011;6495;51.808;7.478;2022-11-14T00:10:00;15.27;;;7.57;;
12852;SDS011;6495;51.808;7.478;2022-11-14T00:12:47;14.00;;;7.77;;
12852;SDS011;6495;51.808;7.478;2022-11-14T00:15:35;12.47;;;6.63;;
12852;SDS011;6495;51.808;7.478;2022-11-14T00:18:22;12.83;;;7.23;;
12852;SDS011;6495;51.808;7.478;2022-11-14T00:21:09;13.77;;;6.67;;
12852;SDS011;6495;51.808;7.478;2022-11-14T00:23:55;14.07;;;7.37;;
12852;SDS011;6495;51.808;7.478;2022-11-14T00:26:42;13.93;;;7.60;;
12852;SDS011;6495;51.808;7.478;2022-11-14T00:29:29;13.67;;;7.20;;
12852;SDS011;6495;51.808;7.478;2022-11-14T00:32:17;13.63;;;7.53;;
12852;SDS011;6495;51.808;7.478;2022-11-14T00:35:07;15.90;;;7.83;;
12852;SDS011;6495;51.808;7.478;2022-11-14T00:37:54;15.80;;;7.03;;
12852;SDS011;6495;51.808;7.478;2022-11-14T00:40:41;10.57;;;6.47;;
12852;SDS011;6495;51.808;7.478;2022-11-14T00:43:28;12.67;;;6.83;;
12852;SDS011;6495;51.808;7.478;2022-11-14T00:46:14;13.83;;;7.33;;
12852;SDS011;6495;51.808;7.478;2022-11-14T00:49:03;12.87;;;6.97;;
12852;SDS011;6495;51.808;7.478;2022-11-14T00:51:50;13.10;;;6.57;;
12852;SDS011;6495;51.808;7.478;2022-11-14T00:54:37;11.97;;;7.23;;
12852;SDS011;6495;51.808;7.478;2022-11-14T00:57:23;14.13;;;6.93;;
12852;SDS011;6495;51.808;7.478;2022-11-14T01:00:11;13.90;;;7.20;;
12852;SDS011;6495;51.808;7.478;2022-11-14T01:02:59;10.80;;;6.73;;
12852;SDS011;6495;51.808;7.478;2022-11-14T01:05:48;12.43;;;6.97;;
12852;SDS011;6495;51.808;7.478;2022-11-14T01:08:36;11.87;;;7.07;;
12852;SDS011;6495;51.808;7.478;2022-11-14T01:11:22;12.50;;;6.27;;
12852;SDS011;6495;51.808;7.478;2022-11-14T01:14:09;11.03;;;6.93;;
12852;SDS011;6495;51.808;7.478;2022-11-14T01:16:56;10.03;;;6.10;;
12852;SDS011;6495;51.808;7.478;2022-11-14T01:19:42;13.70;;;6.90;;
12852;SDS011;6495;51.808;7.478;2022-11-14T01:22:32;13.40;;;7.33;;
12852;SDS011;6495;51.808;7.478;2022-11-14T01:25:19;14.40;;;7.30;;
12852;SDS011;6495;51.808;7.478;2022-11-14T01:28:06;12.93;;;6.07;;
12852;SDS011;6495;51.808;7.478;2022-11-14T01:30:53;12.10;;;6.80;;
12852;SDS011;6495;51.808;7.478;2022-11-14T01:33:39;14.53;;;7.10;;
12852;SDS011;6495;51.808;7.478;2022-11-14T01:36:26;13.27;;;6.43;;
12852;SDS011;6495;51.808;7.478;2022-11-14T01:39:14;10.43;;;6.30;;
12852;SDS011;6495;51.808;7.478;2022-11-14T01:42:00;13.07;;;6.57;;
12852;SDS011;6495;51.808;7.478;2022-11-14T01:44:48;12.47;;;6.90;;
12852;SDS011;6495;51.808;7.478;2022-11-14T01:47:37;9.77;;;6.10;;
12852;SDS011;6495;51.808;7.478;2022-11-14T01:50:24;10.67;;;6.13;;
12852;SDS011;6495;51.808;7.478;2022-11-14T01:53:14;12.67;;;6.60;;
12852;SDS011;6495;51.808;7.478;2022-11-14T01:56:03;12.03;;;5.83;;
12852;SDS011;6495;51.808;7.478;2022-11-14T01:58:55;9.33;;;6.20;;
12852;SDS011;6495;51.808;7.478;2022-11-14T02:01:48;11.03;;;5.70;;
12852;SDS011;6495;51.808;7.478;2022-11-14T02:04:38;13.73;;;6.17;;
12852;SDS011;6495;51.808;7.478;2022-11-14T02:07:31;13.90;;;6.87;;
12852;SDS011;6495;51.808;7.478;2022-11-14T02:10:22;14.47;;;7.10;;
12852;SDS011;6495;51.808;7.478;2022-11-14T02:13:13;13.67;;;6.00;;
12852;SDS011;6495;51.808;7.478;2022-11-14T02:15:59;13.57;;;6.30;;
12852;SDS011;6495;51.808;7.478;2022-11-14T02:18:46;12.30;;;6.87;;
12852;SDS011;6495;51.808;7.478;2022-11-14T02:21:34;15.33;;;7.23;;
12852;SDS011;6495;51.808;7.478;2022-11-14T02:24:21;13.80;;;5.80;;
12852;SDS011;6495;51.808;7.478;2022-11-14T02:27:08;10.87;;;6.33;;
12852;SDS011;6495;51.808;7.478;2022-11-14T02:30:02;12.73;;;6.93;;
12852;SDS011;6495;51.808;7.478;2022-11-14T02:32:51;14.23;;;7.23;;
12852;SDS011;6495;51.808;7.478;2022-11-14T02:35:55;14.97;;;7.27;;
12852;SDS011;6495;51.808;7.478;2022-11-14T02:38:43;15.83;;;7.70;;
12852;SDS011;6495;51.808;7.478;2022-11-14T02:41:29;14.87;;;6.80;;
12852;SDS011;6495;51.808;7.478;2022-11-14T02:44:16;12.83;;;7.20;;
12852;SDS011;6495;51.808;7.478;2022-11-14T02:47:03;12.20;;;6.37;;
12852;SDS011;6495;51.808;7.478;2022-11-14T02:49:50;16.33;;;6.80;;
12852;SDS011;6495;51.808;7.478;2022-11-14T02:52:40;13.13;;;6.63;;
12852;SDS011;6495;51.808;7.478;2022-11-14T02:55:28;14.90;;;6.30;;
12852;SDS011;6495;51.808;7.478;2022-11-14T02:58:15;13.77;;;6.37;;
12852;SDS011;6495;51.808;7.478;2022-11-14T03:01:01;12.27;;;6.83;;
12852;SDS011;6495;51.808;7.478;2022-11-14T03:04:05;11.13;;;6.77;;
12852;SDS011;6495;51.808;7.478;2022-11-14T03:06:51;14.30;;;6.60;;
12852;SDS011;6495;51.808;7.478;2022-11-14T03:09:38;13.93;;;7.03;;
12852;SDS011;6495;51.808;7.478;2022-11-14T03:12:26;13.70;;;6.77;;
12852;SDS011;6495;51.808;7.478;2022-11-14T03:15:12;14.43;;;6.87;;
12852;SDS011;6495;51.808;7.478;2022-11-14T03:17:59;11.53;;;6.33;;
12852;SDS011;6495;51.808;7.478;2022-11-14T03:20:46;14.03;;;7.13;;
12852;SDS011;6495;51.808;7.478;2022-11-14T03:23:33;13.87;;;7.60;;
12852;SDS011;6495;51.808;7.478;2022-11-14T03:26:20;13.60;;;6.67;;
12852;SDS011;6495;51.808;7.478;2022-11-14T03:29:08;14.07;;;7.43;;
12852;SDS011;6495;51.808;7.478;2022-11-14T03:31:55;13.17;;;6.57;;
12852;SDS011;6495;51.808;7.478;2022-11-14T03:34:41;14.67;;;7.70;;
12852;SDS011;6495;51.808;7.478;2022-11-14T03:37:28;12.50;;;6.67;;
12852;SDS011;6495;51.808;7.478;2022-11-14T03:40:15;13.80;;;6.77;;
12852;SDS011;6495;51.808;7.478;2022-11-14T03:43:02;9.70;;;6.10;;
12852;SDS011;6495;51.808;7.478;2022-11-14T03:45:50;13.13;;;6.43;;
12852;SDS011;6495;51.808;7.478;2022-11-14T03:48:37;15.33;;;7.27;;
12852;SDS011;6495;51.808;7.478;2022-11-14T03:51:24;12.43;;;6.47;;
12852;SDS011;6495;51.808;7.478;2022-11-14T03:54:10;13.63;;;7.07;;
12852;SDS011;6495;51.808;7.478;2022-11-14T03:56:56;15.30;;;6.30;;
12852;SDS011;6495;51.808;7.478;2022-11-14T03:59:43;13.27;;;5.83;;
12852;SDS011;6495;51.808;7.478;2022-11-14T04:02:31;14.83;;;7.47;;
12852;SDS011;6495;51.808;7.478;2022-11-14T04:05:17;13.90;;;6.60;;
12852;SDS011;6495;51.808;7.478;2022-11-14T04:08:04;13.40;;;6.73;;
12852;SDS011;6495;51.808;7.478;2022-11-14T04:10:51;13.60;;;6.43;;
12852;SDS011;6495;51.808;7.478;2022-11-14T04:13:38;13.33;;;6.47;;
12852;SDS011;6495;51.808;7.478;2022-11-14T04:16:24;11.27;;;6.23;;
12852;SDS011;6495;51.808;7.478;2022-11-14T04:19:12;12.10;;;6.23;;
12852;SDS011;6495;51.808;7.478;2022-11-14T04:21:59;12.33;;;6.77;;
12852;SDS011;6495;51.808;7.478;2022-11-14T04:24:45;14.37;;;6.97;;
12852;SDS011;6495;51.808;7.478;2022-11-14T04:27:32;14.47;;;6.97;;
12852;SDS011;6495;51.808;7.478;2022-11-14T04:30:19;11.23;;;6.70;;
12852;SDS011;6495;51.808;7.478;2022-11-14T04:33:06;15.13;;;6.90;;
12852;SDS011;6495;51.808;7.478;2022-11-14T04:35:54;12.30;;;6.53;;
12852;SDS011;6495;51.808;7.478;2022-11-14T04:38:41;12.63;;;6.83;;
12852;SDS011;6495;51.808;7.478;2022-11-14T04:41:28;12.90;;;6.77;;
12852;SDS011;6495;51.808;7.478;2022-11-14T04:44:14;11.27;;;6.33;;
12852;SDS011;6495;51.808;7.478;2022-11-14T04:47:01;13.47;;;6.73;;
12852;SDS011;6495;51.808;7.478;2022-11-14T04:49:47;12.83;;;7.07;;
12852;SDS011;6495;51.808;7.478;2022-11-14T04:52:36;13.87;;;6.60;;
12852;SDS011;6495;51.808;7.478;2022-11-14T04:55:22;13.53;;;6.37;;
12852;SDS011;6495;51.808;7.478;2022-11-14T04:58:09;11.97;;;6.47;;
12852;SDS011;6495;51.808;7.478;2022-11-14T05:00:56;11.50;;;6.37;;
12852;SDS011;6495;51.808;7.478;2022-11-14T05:03:45;14.03;;;6.90;;
12852;SDS011;6495;51.808;7.478;2022-11-14T05:06:31;11.30;;;6.37;;
12852;SDS011;6495;51.808;7.478;2022-11-14T05:09:19;11.47;;;6.03;;
12852;SDS011;6495;51.808;7.478;2022-11-14T05:12:05;9.30;;;5.47;;
12852;SDS011;6495;51.808;7.478;2022-11-14T05:14:52;11.10;;;6.00;;
12852;SDS011;6495;51.808;7.478;2022-11-14T05:17:38;12.20;;;6.17;;
12852;SDS011;6495;51.808;7.478;2022-11-14T05:20:25;16.67;;;8.80;;
12852;SDS011;6495;51.808;7.478;2022-11-14T05:23:17;11.37;;;6.17;;
12852;SDS011;6495;51.808;7.478;2022-11-14T05:26:09;10.47;;;6.33;;
12852;SDS011;6495;51.808;7.478;2022-11-14T05:28:57;9.30;;;6.07;;
12852;SDS011;6495;51.808;7.478;2022-11-14T05:31:44;12.90;;;6.03;;
12852;SDS011;6495;51.808;7.478;2022-11-14T05:34:30;12.77;;;6.07;;
12852;SDS011;6495;51.808;7.478;2022-11-14T05:37:17;11.33;;;6.57;;
12852;SDS011;6495;51.808;7.478;2022-11-14T05:40:04;15.37;;;6.37;;
12852;SDS011;6495;51.808;7.478;2022-11-14T05:42:54;14.23;;;6.17;;
12852;SDS011;6495;51.808;7.478;2022-11-14T05:45:41;11.00;;;5.90;;
12852;SDS011;6495;51.808;7.478;2022-11-14T05:48:28;13.00;;;6.33;;
12852;SDS011;6495;51.808;7.478;2022-11-14T05:51:16;12.40;;;6.23;;
12852;SDS011;6495;51.808;7.478;2022-11-14T05:54:03;10.60;;;5.73;;
12852;SDS011;6495;51.808;7.478;2022-11-14T05:56:50;11.70;;;6.90;;
12852;SDS011;6495;51.808;7.478;2022-11-14T05:59:38;14.10;;;6.37;;
12852;SDS011;6495;51.808;7.478;2022-11-14T06:02:25;14.40;;;6.50;;
12852;SDS011;6495;51.808;7.478;2022-11-14T06:05:11;14.07;;;6.77;;
12852;SDS011;6495;51.808;7.478;2022-11-14T06:07:58;11.47;;;6.27;;
12852;SDS011;6495;51.808;7.478;2022-11-14T06:10:45;12.77;;;6.50;;
12852;SDS011;6495;51.808;7.478;2022-11-14T06:13:32;14.80;;;6.93;;
12852;SDS011;6495;51.808;7.478;2022-11-14T06:16:20;16.00;;;7.67;;
12852;SDS011;6495;51.808;7.478;2022-11-14T06:19:07;13.50;;;6.60;;
12852;SDS011;6495;51.808;7.478;2022-11-14T06:21:53;15.60;;;7.37;;
12852;SDS011;6495;51.808;7.478;2022-11-14T06:24:40;15.03;;;7.57;;
12852;SDS011;6495;51.808;7.478;2022-11-14T06:27:26;12.37;;;6.40;;
12852;SDS011;6495;51.808;7.478;2022-11-14T06:30:13;12.00;;;7.20;;
12852;SDS011;6495;51.808;7.478;2022-11-14T06:33:01;12.63;;;6.63;;
12852;SDS011;6495;51.808;7.478;2022-11-14T06:35:48;17.77;;;8.03;;
12852;SDS011;6495;51.808;7.478;2022-11-14T06:38:36;13.97;;;7.10;;
12852;SDS011;6495;51.808;7.478;2022-11-14T06:41:24;15.53;;;8.50;;
12852;SDS011;6495;51.808;7.478;2022-11-14T06:44:11;15.00;;;7.90;;
12852;SDS011;6495;51.808;7.478;2022-11-14T06:46:58;17.97;;;7.80;;
12852;SDS011;6495;51.808;7.478;2022-11-14T06:49:46;12.67;;;6.57;;
12852;SDS011;6495;51.808;7.478;2022-11-14T06:52:33;13.30;;;7.47;;
12852;SDS011;6495;51.808;7.478;2022-11-14T06:55:19;10.83;;;5.70;;
12852;SDS011;6495;51.808;7.478;2022-11-14T06:58:09;13.43;;;6.97;;
12852;SDS011;6495;51.808;7.478;2022-11-14T07:01:01;15.50;;;7.53;;
12852;SDS011;6495;51.808;7.478;2022-11-14T07:03:48;12.93;;;6.97;;
12852;SDS011;6495;51.808;7.478;2022-11-14T07:06:37;13.43;;;7.37;;
12852;SDS011;6495;51.808;7.478;2022-11-14T07:09:23;12.87;;;6.83;;
12852;SDS011;6495;51.808;7.478;2022-11-14T07:12:10;10.13;;;6.10;;
12852;SDS011;6495;51.808;7.478;2022-11-14T07:14:57;13.50;;;6.87;;
12852;SDS011;6495;51.808;7.478;2022-11-14T07:17:43;13.40;;;6.70;;
12852;SDS011;6495;51.808;7.478;2022-11-14T07:20:32;12.87;;;7.23;;
12852;SDS011;6495;51.808;7.478;2022-11-14T07:23:20;13.47;;;6.90;;
12852;SDS011;6495;51.808;7.478;2022-11-14T07:26:08;12.37;;;7.17;;
12852;SDS011;6495;51.808;7.478;2022-11-14T07:28:56;11.23;;;6.67;;
12852;SDS011;6495;51.808;7.478;2022-11-14T07:31:46;15.53;;;8.40;;
12852;SDS011;6495;51.808;7.478;2022-11-14T07:34:33;12.20;;;6.80;;
12852;SDS011;6495;51.808;7.478;2022-11-14T07:37:20;11.93;;;6.03;;
12852;SDS011;6495;51.808;7.478;2022-11-14T07:40:08;13.83;;;6.80;;
12852;SDS011;6495;51.808;7.478;2022-11-14T07:42:56;14.67;;;7.67;;
12852;SDS011;6495;51.808;7.478;2022-11-14T07:45:44;13.63;;;7.17;;
12852;SDS011;6495;51.808;7.478;2022-11-14T07:48:31;12.37;;;6.83;;
12852;SDS011;6495;51.808;7.478;2022-11-14T07:51:18;16.47;;;7.50;;
12852;SDS011;6495;51.808;7.478;2022-11-14T07:54:05;15.20;;;7.43;;
12852;SDS011;6495;51.808;7.478;2022-11-14T07:56:56;13.07;;;7.37;;
12852;SDS011;6495;51.808;7.478;2022-11-14T07:59:42;16.40;;;7.30;;
12852;SDS011;6495;51.808;7.478;2022-11-14T08:02:29;14.10;;;7.50;;
12852;SDS011;6495;51.808;7.478;2022-11-14T08:05:16;11.53;;;6.77;;
12852;SDS011;6495;51.808;7.478;2022-11-14T08:08:03;13.77;;;7.27;;
12852;SDS011;6495;51.808;7.478;2022-11-14T08:10:50;13.63;;;7.57;;
12852;SDS011;6495;51.808;7.478;2022-11-14T08:13:42;17.90;;;8.60;;
12852;SDS011;6495;51.808;7.478;2022-11-14T08:16:29;19.13;;;8.97;;
12852;SDS011;6495;51.808;7.478;2022-11-14T08:19:15;15.20;;;8.47;;
12852;SDS011;6495;51.808;7.478;2022-11-14T08:22:01;15.10;;;7.87;;
12852;SDS011;6495;51.808;7.478;2022-11-14T08:24:48;15.40;;;7.53;;
12852;SDS011;6495;51.808;7.478;2022-11-14T08:27:35;13.87;;;7.77;;
12852;SDS011;6495;51.808;7.478;2022-11-14T08:30:23;14.57;;;8.07;;
12852;SDS011;6495;51.808;7.478;2022-11-14T08:33:10;14.00;;;8.60;;
12852;SDS011;6495;51.808;7.478;2022-11-14T08:35:59;15.13;;;7.53;;
12852;SDS011;6495;51.808;7.478;2022-11-14T08:38:47;17.87;;;8.17;;
12852;SDS011;6495;51.808;7.478;2022-11-14T08:41:35;14.70;;;9.10;;
12852;SDS011;6495;51.808;7.478;2022-11-14T08:44:31;13.60;;;7.73;;
12852;SDS011;6495;51.808;7.478;2022-11-14T08:47:19;17.40;;;8.63;;
12852;SDS011;6495;51.808;7.478;2022-11-14T08:50:06;14.77;;;8.03;;
12852;SDS011;6495;51.808;7.478;2022-11-14T08:52:54;14.27;;;8.30;;
12852;SDS011;6495;51.808;7.478;2022-11-14T08:55:42;15.60;;;7.87;;
12852;SDS011;6495;51.808;7.478;2022-11-14T08:58:29;15.47;;;8.73;;
12852;SDS011;6495;51.808;7.478;2022-11-14T09:01:17;13.20;;;7.43;;
12852;SDS011;6495;51.808;7.478;2022-11-14T09:04:05;14.37;;;8.77;;
12852;SDS011;6495;51.808;7.478;2022-11-14T09:06:53;11.77;;;7.57;;
12852;SDS011;6495;51.808;7.478;2022-11-14T09:09:39;14.33;;;7.20;;
12852;SDS011;6495;51.808;7.478;2022-11-14T09:12:26;13.33;;;7.80;;
12852;SDS011;6495;51.808;7.478;2022-11-14T09:15:13;18.17;;;9.57;;
12852;SDS011;6495;51.808;7.478;2022-11-14T09:18:00;17.83;;;8.93;;
12852;SDS011;6495;51.808;7.478;2022-11-14T09:20:48;16.63;;;9.13;;
12852;SDS011;6495;51.808;7.478;2022-11-14T09:23:34;15.60;;;8.17;;
12852;SDS011;6495;51.808;7.478;2022-11-14T09:26:21;14.90;;;8.00;;
12852;SDS011;6495;51.808;7.478;2022-11-14T09:29:08;13.83;;;7.63;;
12852;SDS011;6495;51.808;7.478;2022-11-14T09:31:54;14.30;;;8.20;;
12852;SDS011;6495;51.808;7.478;2022-11-14T09:34:41;15.63;;;7.83;;
12852;SDS011;6495;51.808;7.478;2022-11-14T09:37:30;17.43;;;9.17;;
12852;SDS011;6495;51.808;7.478;2022-11-14T09:40:18;13.30;;;8.03;;
12852;SDS011;6495;51.808;7.478;2022-11-14T09:43:10;20.13;;;8.70;;
12852;SDS011;6495;51.808;7.478;2022-11-14T09:46:19;18.40;;;8.57;;
12852;SDS011;6495;51.808;7.478;2022-11-14T09:49:16;14.73;;;8.43;;
12852;SDS011;6495;51.808;7.478;2022-11-14T09:52:14;15.13;;;7.93;;
12852;SDS011;6495;51.808;7.478;2022-11-14T09:55:17;15.03;;;7.80;;
12852;SDS011;6495;51.808;7.478;2022-11-14T09:58:07;14.53;;;7.40;;
12852;SDS011;6495;51.808;7.478;2022-11-14T10:01:03;19.70;;;7.97;;
12852;SDS011;6495;51.808;7.478;2022-11-14T10:03:57;16.17;;;8.70;;
12852;SDS011;6495;51.808;7.478;2022-11-14T10:06:54;15.77;;;8.87;;
12852;SDS011;6495;51.808;7.478;2022-11-14T10:09:57;17.47;;;8.37;;
12852;SDS011;6495;51.808;7.478;2022-11-14T10:12:57;14.93;;;8.17;;
12852;SDS011;6495;51.808;7.478;2022-11-14T10:15:53;15.37;;;8.27;;
12852;SDS011;6495;51.808;7.478;2022-11-14T10:19:02;14.50;;;8.07;;
12852;SDS011;6495;51.808;7.478;2022-11-14T10:22:10;14.90;;;8.53;;
12852;SDS011;6495;51.808;7.478;2022-11-14T10:25:13;15.57;;;8.50;;
12852;SDS011;6495;51.808;7.478;2022-11-14T10:28:15;13.50;;;7.80;;
12852;SDS011;6495;51.808;7.478;2022-11-14T10:31:24;17.60;;;9.07;;
12852;SDS011;6495;51.808;7.478;2022-11-14T10:34:28;14.00;;;8.20;;
12852;SDS011;6495;51.808;7.478;2022-11-14T10:37:21;13.90;;;7.67;;
12852;SDS011;6495;51.808;7.478;2022-11-14T10:40:15;15.07;;;7.53;;
12852;SDS011;6495;51.808;7.478;2022-11-14T10:43:10;13.47;;;7.17;;
12852;SDS011;6495;51.808;7.478;2022-11-14T10:46:09;15.00;;;7.73;;
12852;SDS011;6495;51.808;7.478;2022-11-14T10:49:10;12.97;;;6.73;;
12852;SDS011;6495;51.808;7.478;2022-11-14T10:52:03;10.10;;;6.10;;
12852;SDS011;6495;51.808;7.478;2022-11-14T10:54:57;14.13;;;6.90;;
12852;SDS011;6495;51.808;7.478;2022-11-14T10:57:50;14.20;;;6.87;;
12852;SDS011;6495;51.808;7.478;2022-11-14T11:00:38;11.57;;;7.10;;
12852;SDS011;6495;51.808;7.478;2022-11-14T11:03:38;12.10;;;7.13;;
12852;SDS011;6495;51.808;7.478;2022-11-14T11:06:27;12.30;;;6.80;;
12852;SDS011;6495;51.808;7.478;2022-11-14T11:09:15;10.90;;;6.85;;
12852;SDS011;6495;51.808;7.478;2022-11-14T11:12:37;13.85;;;6.32;;
12852;SDS011;6495;51.808;7.478;2022-11-14T11:15:30;12.95;;;6.53;;
12852;SDS011;6495;51.808;7.478;2022-11-14T11:18:26;12.57;;;7.13;;
12852;SDS011;6495;51.808;7.478;2022-11-14T11:21:16;13.68;;;6.25;;
12852;SDS011;6495;51.808;7.478;2022-11-14T11:24:05;8.98;;;5.13;;
12852;SDS011;6495;51.808;7.478;2022-11-14T11:27:02;10.18;;;5.85;;
12852;SDS011;6495;51.808;7.478;2022-11-14T11:30:04;7.95;;;5.90;;
12852;SDS011;6495;51.808;7.478;2022-11-14T11:36:12;10.48;;;5.97;;
12852;SDS011;6495;51.808;7.478;2022-11-14T11:39:02;9.60;;;5.97;;
12852;SDS011;6495;51.808;7.478;2022-11-14T11:41:48;10.32;;;5.85;;
12852;SDS011;6495;51.808;7.478;2022-11-14T11:44:54;8.87;;;5.33;;
12852;SDS011;6495;51.808;7.478;2022-11-14T11:47:48;9.93;;;5.97;;
12852;SDS011;6495;51.808;7.478;2022-11-14T11:50:43;10.00;;;6.13;;
12852;SDS011;6495;51.808;7.478;2022-11-14T11:53:33;10.60;;;5.67;;
12852;SDS011;6495;51.808;7.478;2022-11-14T11:56:24;7.65;;;4.90;;
12852;SDS011;6495;51.808;7.478;2022-11-14T11:59:18;8.40;;;5.05;;
12852;SDS011;6495;51.808;7.478;2022-11-14T12:02:19;9.73;;;6.30;;
12852;SDS011;6495;51.808;7.478;2022-11-14T12:05:11;9.45;;;5.25;;
12852;SDS011;6495;51.808;7.478;2022-11-14T12:08:03;8.27;;;4.97;;
12852;SDS011;6495;51.808;7.478;2022-11-14T12:10:53;8.48;;;5.57;;
12852;SDS011;6495;51.808;7.478;2022-11-14T12:13:54;9.77;;;6.20;;
12852;SDS011;6495;51.808;7.478;2022-11-14T12:21:01;7.47;;;4.67;;
12852;SDS011;6495;51.808;7.478;2022-11-14T12:27:33;9.32;;;5.97;;
12852;SDS011;6495;51.808;7.478;2022-11-14T12:30:40;11.43;;;6.15;;
12852;SDS011;6495;51.808;7.478;2022-11-14T12:33:35;11.43;;;6.68;;
12852;SDS011;6495;51.808;7.478;2022-11-14T12:36:29;9.95;;;6.22;;
12852;SDS011;6495;51.808;7.478;2022-11-14T12:39:20;14.05;;;7.55;;
12852;SDS011;6495;51.808;7.478;2022-11-14T12:42:17;11.60;;;6.70;;
12852;SDS011;6495;51.808;7.478;2022-11-14T12:45:19;9.50;;;5.95;;
12852;SDS011;6495;51.808;7.478;2022-11-14T12:48:45;11.57;;;6.50;;
12852;SDS011;6495;51.808;7.478;2022-11-14T12:51:48;6.90;;;4.45;;
12852;SDS011;6495;51.808;7.478;2022-11-14T12:54:42;10.20;;;5.90;;
12852;SDS011;6495;51.808;7.478;2022-11-14T12:57:33;7.90;;;4.72;;
12852;SDS011;6495;51.808;7.478;2022-11-14T13:00:34;9.98;;;6.10;;
12852;SDS011;6495;51.808;7.478;2022-11-14T13:03:31;11.50;;;6.15;;
12852;SDS011;6495;51.808;7.478;2022-11-14T13:06:33;7.13;;;5.28;;
12852;SDS011;6495;51.808;7.478;2022-11-14T13:09:36;12.70;;;6.35;;
12852;SDS011;6495;51.808;7.478;2022-11-14T13:12:55;7.95;;;4.95;;
12852;SDS011;6495;51.808;7.478;2022-11-14T13:16:02;7.70;;;5.55;;
12852;SDS011;6495;51.808;7.478;2022-11-14T13:19:20;9.73;;;6.07;;
12852;SDS011;6495;51.808;7.478;2022-11-14T13:22:38;11.10;;;5.93;;
12852;SDS011;6495;51.808;7.478;2022-11-14T13:25:26;9.18;;;5.30;;
12852;SDS011;6495;51.808;7.478;2022-11-14T13:31:42;10.77;;;6.15;;
12852;SDS011;6495;51.808;7.478;2022-11-14T13:34:39;8.70;;;5.93;;
12852;SDS011;6495;51.808;7.478;2022-11-14T13:37:39;10.40;;;5.97;;
12852;SDS011;6495;51.808;7.478;2022-11-14T13:40:45;9.48;;;5.93;;
12852;SDS011;6495;51.808;7.478;2022-11-14T13:43:54;10.95;;;6.20;;
12852;SDS011;6495;51.808;7.478;2022-11-14T13:46:59;9.52;;;5.70;;
12852;SDS011;6495;51.808;7.478;2022-11-14T13:50:06;7.55;;;4.90;;
12852;SDS011;6495;51.808;7.478;2022-11-14T13:52:55;7.70;;;5.43;;
12852;SDS011;6495;51.808;7.478;2022-11-14T13:55:47;9.35;;;5.60;;
12852;SDS011;6495;51.808;7.478;2022-11-14T13:58:51;7.50;;;4.80;;
12852;SDS011;6495;51.808;7.478;2022-11-14T14:02:21;11.05;;;5.93;;
12852;SDS011;6495;51.808;7.478;2022-11-14T14:05:44;12.95;;;5.22;;
12852;SDS011;6495;51.808;7.478;2022-11-14T14:08:55;8.20;;;5.18;;
12852;SDS011;6495;51.808;7.478;2022-11-14T14:12:04;8.90;;;5.30;;
12852;SDS011;6495;51.808;7.478;2022-11-14T14:15:18;8.52;;;5.43;;
12852;SDS011;6495;51.808;7.478;2022-11-14T14:18:15;7.60;;;4.90;;
12852;SDS011;6495;51.808;7.478;2022-11-14T14:21:18;9.23;;;5.72;;
12852;SDS011;6495;51.808;7.478;2022-11-14T14:24:25;9.38;;;5.72;;
12852;SDS011;6495;51.808;7.478;2022-11-14T14:27:27;7.90;;;5.18;;
12852;SDS011;6495;51.808;7.478;2022-11-14T14:30:24;11.55;;;6.00;;
12852;SDS011;6495;51.808;7.478;2022-11-14T14:33:11;10.63;;;6.30;;
12852;SDS011;6495;51.808;7.478;2022-11-14T14:35:59;11.68;;;6.10;;
12852;SDS011;6495;51.808;7.478;2022-11-14T14:38:48;12.90;;;6.90;;
12852;SDS011;6495;51.808;7.478;2022-11-14T14:41:35;8.50;;;5.55;;
12852;SDS011;6495;51.808;7.478;2022-11-14T14:44:24;9.85;;;6.05;;
12852;SDS011;6495;51.808;7.478;2022-11-14T14:47:13;10.65;;;6.47;;
12852;SDS011;6495;51.808;7.478;2022-11-14T14:50:03;10.90;;;6.28;;
12852;SDS011;6495;51.808;7.478;2022-11-14T14:53:00;11.52;;;6.68;;
12852;SDS011;6495;51.808;7.478;2022-11-14T14:55:51;13.68;;;7.25;;
12852;SDS011;6495;51.808;7.478;2022-11-14T14:58:40;9.27;;;5.80;;
12852;SDS011;6495;51.808;7.478;2022-11-14T15:01:30;9.07;;;5.43;;
12852;SDS011;6495;51.808;7.478;2022-11-14T15:04:20;8.70;;;5.95;;
12852;SDS011;6495;51.808;7.478;2022-11-14T15:07:16;8.70;;;5.90;;
12852;SDS011;6495;51.808;7.478;2022-11-14T15:10:06;11.00;;;6.10;;
12852;SDS011;6495;51.808;7.478;2022-11-14T15:13:06;12.02;;;5.95;;
12852;SDS011;6495;51.808;7.478;2022-11-14T15:15:59;11.38;;;6.25;;
12852;SDS011;6495;51.808;7.478;2022-11-14T15:18:47;9.63;;;5.55;;
12852;SDS011;6495;51.808;7.478;2022-11-14T15:21:36;8.43;;;5.07;;
12852;SDS011;6495;51.808;7.478;2022-11-14T15:24:22;11.35;;;5.72;;
12852;SDS011;6495;51.808;7.478;2022-11-14T15:27:10;9.32;;;6.05;;
12852;SDS011;6495;51.808;7.478;2022-11-14T15:30:01;12.80;;;6.70;;
12852;SDS011;6495;51.808;7.478;2022-11-14T15:32:51;10.77;;;6.03;;
12852;SDS011;6495;51.808;7.478;2022-11-14T15:35:40;10.63;;;6.43;;
12852;SDS011;6495;51.808;7.478;2022-11-14T15:38:27;10.63;;;6.32;;
12852;SDS011;6495;51.808;7.478;2022-11-14T15:41:34;11.05;;;6.95;;
12852;SDS011;6495;51.808;7.478;2022-11-14T15:44:27;10.77;;;6.93;;
12852;SDS011;6495;51.808;7.478;2022-11-14T15:47:18;11.53;;;6.80;;
12852;SDS011;6495;51.808;7.478;2022-11-14T15:50:21;11.93;;;6.50;;
12852;SDS011;6495;51.808;7.478;2022-11-14T15:53:15;9.07;;;5.40;;
12852;SDS011;6495;51.808;7.478;2022-11-14T15:56:09;7.20;;;5.32;;
12852;SDS011;6495;51.808;7.478;2022-11-14T15:58:59;8.38;;;4.97;;
12852;SDS011;6495;51.808;7.478;2022-11-14T16:01:47;5.97;;;4.20;;
12852;SDS011;6495;51.808;7.478;2022-11-14T16:04:39;8.00;;;4.90;;
12852;SDS011;6495;51.808;7.478;2022-11-14T16:07:31;7.73;;;4.57;;
12852;SDS011;6495;51.808;7.478;2022-11-14T16:10:18;6.45;;;4.47;;
12852;SDS011;6495;51.808;7.478;2022-11-14T16:13:07;8.20;;;5.00;;
12852;SDS011;6495;51.808;7.478;2022-11-14T16:15:55;8.45;;;4.47;;
12852;SDS011;6495;51.808;7.478;2022-11-14T16:18:42;8.20;;;4.60;;
12852;SDS011;6495;51.808;7.478;2022-11-14T16:21:29;6.78;;;4.32;;
12852;SDS011;6495;51.808;7.478;2022-11-14T16:24:18;6.47;;;4.10;;
12852;SDS011;6495;51.808;7.478;2022-11-14T16:27:06;5.77;;;4.03;;
12852;SDS011;6495;51.808;7.478;2022-11-14T16:29:53;6.35;;;4.25;;
12852;SDS011;6495;51.808;7.478;2022-11-14T16:32:40;8.25;;;4.57;;
12852;SDS011;6495;51.808;7.478;2022-11-14T16:35:30;5.87;;;4.37;;
12852;SDS011;6495;51.808;7.478;2022-11-14T16:38:19;6.70;;;4.37;;
12852;SDS011;6495;51.808;7.478;2022-11-14T16:41:06;7.90;;;4.00;;
12852;SDS011;6495;51.808;7.478;2022-11-14T16:43:54;6.33;;;4.20;;
12852;SDS011;6495;51.808;7.478;2022-11-14T16:46:42;7.90;;;4.55;;
12852;SDS011;6495;51.808;7.478;2022-11-14T16:49:29;7.03;;;4.60;;
12852;SDS011;6495;51.808;7.478;2022-11-14T16:52:16;7.28;;;4.35;;
12852;SDS011;6495;51.808;7.478;2022-11-14T16:55:05;6.38;;;4.90;;
12852;SDS011;6495;51.808;7.478;2022-11-14T16:57:53;9.45;;;4.40;;
12852;SDS011;6495;51.808;7.478;2022-11-14T17:00:41;7.47;;;4.65;;
12852;SDS011;6495;51.808;7.478;2022-11-14T17:03:29;6.60;;;4.70;;
12852;SDS011;6495;51.808;7.478;2022-11-14T17:06:17;7.17;;;4.57;;
12852;SDS011;6495;51.808;7.478;2022-11-14T17:09:04;7.60;;;4.72;;
12852;SDS011;6495;51.808;7.478;2022-11-14T17:11:52;6.43;;;4.23;;
12852;SDS011;6495;51.808;7.478;2022-11-14T17:14:39;6.38;;;4.28;;
12852;SDS011;6495;51.808;7.478;2022-11-14T17:17:25;5.13;;;4.23;;
12852;SDS011;6495;51.808;7.478;2022-11-14T17:20:12;7.37;;;4.53;;
12852;SDS011;6495;51.808;7.478;2022-11-14T17:22:59;7.60;;;4.40;;
12852;SDS011;6495;51.808;7.478;2022-11-14T17:25:46;9.10;;;4.73;;
12852;SDS011;6495;51.808;7.478;2022-11-14T17:28:34;9.13;;;5.13;;